Time;durP1;ratioP1;P1;durP2;ratioP2;P2;SDS_P1;SDS_P2;PMS_P1;PMS_P2;Temp;Humidity;BMP_temperature;BMP_pressure;BME280_temperature;BME280_humidity;BME280_pressure;Samples;Min_cycle;Max_cycle;Signal;HPM_P1;HPM_P2
2021/12/16 00:09:26;;;;;;;11.97;6.37;;;8.50;99.90;;;;;;5022320;28;20198;-77
2021/12/16 00:34:06;;;;;;;11.17;6.50;;;8.40;99.90;;;;;;5018117;28;20270;-77
2021/12/16 00:36:35;;;;;;;15.23;6.70;;;8.40;99.90;;;;;;5015407;28;20206;-77
2021/12/16 00:39:13;;;;;;;12.90;6.80;;;8.40;99.90;;;;;;5012217;28;20198;-77
2021/12/16 00:41:41;;;;;;;9.43;7.00;;;8.40;99.90;;;;;;5014372;28;20177;-77
2021/12/16 00:45:02;;;;;;;14.77;7.10;;;8.40;99.90;;;;;;5011667;28;20597;-77
2021/12/16 00:50:04;;;;;;;14.50;7.67;;;8.40;99.90;;;;;;5023248;28;20210;-77
2021/12/16 00:55:37;;;;;;;13.20;7.80;;;8.40;99.90;;;;;;5014907;28;20203;-79
2021/12/16 00:58:09;;;;;;;13.93;7.93;;;8.40;99.90;;;;;;5007800;28;20573;-77
2021/12/16 01:01:03;;;;;;;16.73;7.93;;;8.40;99.90;;;;;;5053794;28;20194;-76
2021/12/16 01:06:21;;;;;;;13.10;7.97;;;8.40;99.90;;;;;;5023979;28;20182;-77
2021/12/16 01:09:35;;;;;;;15.20;8.30;;;8.40;99.90;;;;;;5011001;28;20277;-77
2021/12/16 01:46:15;;;;;;;23.20;11.30;;;8.50;99.90;;;;;;5014071;28;20187;-77
2021/12/16 01:51:24;;;;;;;20.20;10.90;;;8.50;99.90;;;;;;5020229;28;20647;-77
2021/12/16 01:54:38;;;;;;;19.40;11.07;;;8.40;99.90;;;;;;4987162;28;20611;-77
2021/12/16 01:57:20;;;;;;;25.57;11.77;;;8.40;99.90;;;;;;5010955;28;20614;-76
2021/12/16 01:59:58;;;;;;;21.97;12.80;;;8.40;99.90;;;;;;5005877;28;20682;-77
2021/12/16 02:10:13;;;;;;;29.73;12.80;;;8.30;99.90;;;;;;5021037;28;20294;-77
2021/12/16 02:35:13;;;;;;;30.43;15.20;;;8.40;99.90;;;;;;5026148;28;20201;-78
2021/12/16 02:37:02;;;;;;;27.63;15.13;;;8.30;99.90;;;;;;5016107;28;20187;-78
2021/12/16 02:39:32;;;;;;;26.77;15.10;;;8.30;99.90;;;;;;5006963;28;20653;-78
2021/12/16 02:42:05;;;;;;;30.60;15.73;;;8.30;99.90;;;;;;5011227;28;20201;-78
2021/12/16 02:44:38;;;;;;;33.87;16.40;;;8.30;99.90;;;;;;5018711;28;20289;-78
2021/12/16 02:49:52;;;;;;;36.03;16.57;;;8.30;99.90;;;;;;5029154;28;20203;-79
2021/12/16 02:52:24;;;;;;;36.33;16.73;;;8.20;99.90;;;;;;5017035;28;20217;-79
2021/12/16 02:55:00;;;;;;;37.67;18.20;;;8.20;99.90;;;;;;5027518;28;20175;-77
2021/12/16 02:57:55;;;;;;;36.43;17.77;;;8.10;99.90;;;;;;5014030;28;20171;-75
2021/12/16 03:00:21;;;;;;;36.37;17.70;;;8.20;99.90;;;;;;5023417;28;20626;-76
2021/12/16 03:02:50;;;;;;;39.60;19.37;;;8.10;99.90;;;;;;4997552;28;20241;-76
2021/12/16 03:05:19;;;;;;;35.57;18.43;;;8.00;99.90;;;;;;5019197;28;20202;-76
2021/12/16 03:08:05;;;;;;;38.70;18.60;;;8.00;99.90;;;;;;5017284;28;20232;-75
2021/12/16 03:11:00;;;;;;;35.10;18.03;;;8.00;99.90;;;;;;5014032;28;21426;-76
2021/12/16 03:16:13;;;;;;;37.23;19.00;;;8.00;99.90;;;;;;5024751;28;20195;-75
2021/12/16 03:18:52;;;;;;;40.10;20.03;;;8.00;99.90;;;;;;4997752;28;20288;-78
2021/12/16 03:21:29;;;;;;;37.83;19.73;;;7.90;99.90;;;;;;5017509;28;20178;-77
2021/12/16 03:29:30;;;;;;;38.70;20.10;;;7.90;99.90;;;;;;5025954;28;20191;-76
2021/12/16 03:35:25;;;;;;;40.73;21.43;;;8.00;99.90;;;;;;5011241;28;20232;-77
2021/12/16 03:37:50;;;;;;;40.57;21.90;;;8.00;99.90;;;;;;5036204;28;20183;-78
2021/12/16 03:40:33;;;;;;;47.60;23.27;;;7.90;99.90;;;;;;4998586;28;20290;-76
2021/12/16 03:43:05;;;;;;;41.40;21.63;;;8.00;99.90;;;;;;4998014;28;20233;-77
2021/12/16 03:48:41;;;;;;;48.03;22.77;;;7.90;99.90;;;;;;5028666;28;20206;-78
2021/12/16 03:51:13;;;;;;;52.93;23.67;;;8.00;99.90;;;;;;5004178;28;20487;-78
2021/12/16 03:53:42;;;;;;;45.73;22.47;;;8.00;99.90;;;;;;5010847;28;20182;-78
2021/12/16 03:56:10;;;;;;;49.10;21.90;;;8.00;99.90;;;;;;4995152;28;20650;-79
2021/12/16 03:58:55;;;;;;;43.97;24.47;;;8.00;99.90;;;;;;5008264;28;20250;-79
2021/12/16 04:01:26;;;;;;;48.03;22.80;;;8.00;99.90;;;;;;5022866;28;20214;-79
2021/12/16 04:03:53;;;;;;;45.43;23.37;;;8.00;99.90;;;;;;5017750;28;20202;-79
2021/12/16 04:06:21;;;;;;;42.80;22.77;;;8.00;99.90;;;;;;5000029;28;20190;-77
2021/12/16 04:08:54;;;;;;;47.37;23.43;;;8.00;99.90;;;;;;5033604;28;20237;-78
2021/12/16 04:11:27;;;;;;;47.17;23.47;;;8.00;99.90;;;;;;5013862;28;20325;-77
2021/12/16 04:14:03;;;;;;;43.80;23.00;;;8.10;99.90;;;;;;5020315;28;20256;-77
2021/12/16 04:16:50;;;;;;;41.77;21.83;;;8.00;99.90;;;;;;5000460;28;20179;-77
2021/12/16 04:19:27;;;;;;;46.67;23.47;;;8.00;99.90;;;;;;5016006;28;20194;-78
2021/12/16 04:22:17;;;;;;;50.97;25.20;;;8.00;99.90;;;;;;5020555;28;20174;-76
2021/12/16 04:24:48;;;;;;;55.83;24.47;;;8.10;99.90;;;;;;5010438;28;20285;-76
2021/12/16 04:27:18;;;;;;;46.60;24.60;;;8.00;99.90;;;;;;5006388;28;20183;-76
2021/12/16 04:29:45;;;;;;;44.60;24.03;;;8.00;99.90;;;;;;5008942;28;20210;-78
2021/12/16 04:32:11;;;;;;;48.13;23.67;;;8.00;99.90;;;;;;5002059;28;20179;-77
2021/12/16 04:34:37;;;;;;;49.93;24.63;;;8.00;99.90;;;;;;5006757;28;20538;-76
2021/12/16 04:37:14;;;;;;;53.47;24.07;;;8.00;99.90;;;;;;5014477;28;20182;-77
2021/12/16 04:39:42;;;;;;;44.60;23.90;;;8.10;99.90;;;;;;5014343;28;20696;-76
2021/12/16 04:42:11;;;;;;;49.70;23.20;;;8.10;99.90;;;;;;5006866;28;20581;-77
2021/12/16 04:44:41;;;;;;;47.93;24.27;;;8.10;99.90;;;;;;5011399;28;20190;-77
2021/12/16 04:47:08;;;;;;;50.50;24.43;;;8.00;99.90;;;;;;4997553;28;20704;-77
2021/12/16 04:49:42;;;;;;;52.83;25.00;;;8.00;99.90;;;;;;5020994;28;20589;-76
2021/12/16 04:52:13;;;;;;;53.30;24.17;;;8.00;99.90;;;;;;5008377;28;20225;-78
2021/12/16 04:54:40;;;;;;;49.20;23.93;;;8.00;99.90;;;;;;5020770;28;20269;-78
2021/12/16 04:57:09;;;;;;;51.97;25.40;;;8.00;99.90;;;;;;5003097;28;20190;-77
2021/12/16 04:59:37;;;;;;;50.63;25.13;;;8.00;99.90;;;;;;5012736;28;20218;-79
2021/12/16 05:02:10;;;;;;;51.53;23.83;;;8.00;99.90;;;;;;5008703;28;20229;-79
2021/12/16 05:04:50;;;;;;;52.23;23.20;;;8.00;99.90;;;;;;5030682;28;20194;-78
2021/12/16 05:07:17;;;;;;;59.70;24.73;;;8.00;99.90;;;;;;5011612;28;20266;-78
2021/12/16 05:10:05;;;;;;;65.40;26.90;;;8.00;99.90;;;;;;5014519;28;20194;-79
2021/12/16 05:12:39;;;;;;;54.43;25.20;;;8.00;99.90;;;;;;5018577;28;20198;-77
2021/12/16 05:15:09;;;;;;;59.03;27.10;;;8.00;99.90;;;;;;5011412;28;20182;-77
2021/12/16 05:17:42;;;;;;;67.23;27.13;;;8.10;99.90;;;;;;5004472;28;20245;-77
2021/12/16 05:20:15;;;;;;;56.23;25.97;;;8.10;99.90;;;;;;5012081;28;20238;-77
2021/12/16 05:28:10;;;;;;;57.83;27.57;;;8.10;99.90;;;;;;5018934;28;20256;-78
2021/12/16 05:30:36;;;;;;;61.43;27.37;;;8.10;99.90;;;;;;5007883;28;20191;-78
2021/12/16 05:33:03;;;;;;;66.03;28.47;;;8.00;99.90;;;;;;5005864;28;20186;-78
2021/12/16 05:35:31;;;;;;;80.63;29.80;;;8.10;99.90;;;;;;5007985;28;20175;-78
2021/12/16 05:37:57;;;;;;;60.80;28.73;;;8.10;99.90;;;;;;5032031;28;20618;-78
2021/12/16 05:40:27;;;;;;;56.50;26.33;;;8.10;99.90;;;;;;5010765;28;20179;-78
2021/12/16 05:43:07;;;;;;;58.90;26.37;;;8.10;99.90;;;;;;5024068;28;20697;-81
2021/12/16 05:45:35;;;;;;;60.33;28.00;;;8.00;99.90;;;;;;5008133;28;20264;-78
2021/12/16 05:48:08;;;;;;;61.77;26.00;;;8.10;99.90;;;;;;5003234;28;20179;-78
2021/12/16 05:50:51;;;;;;;56.73;26.83;;;8.10;99.90;;;;;;4998084;28;20201;-77
2021/12/16 05:54:08;;;;;;;61.73;26.77;;;8.10;99.90;;;;;;5001867;28;20206;-77
2021/12/16 05:56:45;;;;;;;55.30;24.70;;;8.10;99.90;;;;;;5000690;28;20167;-77
2021/12/16 05:59:22;;;;;;;52.67;25.77;;;8.20;99.90;;;;;;5009987;28;20194;-77
2021/12/16 06:01:51;;;;;;;48.23;23.73;;;8.10;99.90;;;;;;5031824;28;20694;-77
2021/12/16 06:04:21;;;;;;;52.80;25.60;;;8.20;99.90;;;;;;5007294;28;20740;-77
2021/12/16 06:06:55;;;;;;;55.17;25.30;;;8.20;99.90;;;;;;5018718;28;20178;-77
2021/12/16 06:09:21;;;;;;;50.27;24.83;;;8.30;99.90;;;;;;4999767;28;20283;-77
2021/12/16 06:11:48;;;;;;;48.80;25.27;;;8.40;99.90;;;;;;4993240;28;20257;-76
2021/12/16 06:14:41;;;;;;;42.77;24.20;;;8.40;99.90;;;;;;5010972;28;20551;-77
2021/12/16 06:28:47;;;;;;;46.90;22.90;;;8.20;99.90;;;;;;5026583;28;20293;-76
2021/12/16 06:31:12;;;;;;;46.23;24.73;;;8.20;99.90;;;;;;5007399;28;20194;-76
2021/12/16 06:33:38;;;;;;;52.93;24.10;;;8.20;99.90;;;;;;4997892;28;20187;-76
2021/12/16 06:36:04;;;;;;;44.23;23.73;;;8.20;99.90;;;;;;5005493;28;20179;-76
2021/12/16 06:38:41;;;;;;;44.93;24.40;;;8.20;99.90;;;;;;5015322;28;20206;-77
2021/12/16 06:41:36;;;;;;;46.83;23.67;;;8.20;99.90;;;;;;5007664;28;20179;-76
2021/12/16 06:44:29;;;;;;;46.40;24.43;;;8.20;99.90;;;;;;4996247;28;20241;-77
2021/12/16 06:47:05;;;;;;;47.60;23.93;;;8.20;99.90;;;;;;5002749;28;20229;-76
2021/12/16 06:49:32;;;;;;;43.53;23.13;;;8.20;99.90;;;;;;5008518;28;20204;-76
2021/12/16 06:52:02;;;;;;;44.63;24.50;;;8.20;99.90;;;;;;5008059;28;20670;-76
2021/12/16 07:00:27;;;;;;;39.60;20.87;;;8.20;99.90;;;;;;5023243;28;20601;-76
2021/12/16 07:03:01;;;;;;;43.00;22.10;;;8.20;99.90;;;;;;5000599;28;20222;-76
2021/12/16 07:05:52;;;;;;;38.73;20.97;;;8.20;99.90;;;;;;5008705;28;20213;-76
2021/12/16 07:08:18;;;;;;;37.17;19.90;;;8.30;99.90;;;;;;5049034;28;20566;-76
2021/12/16 07:10:46;;;;;;;38.63;19.17;;;8.30;99.90;;;;;;5008502;28;20645;-76
2021/12/16 07:13:18;;;;;;;36.63;19.40;;;8.40;99.90;;;;;;5017858;28;20174;-76
2021/12/16 07:15:49;;;;;;;35.13;18.80;;;8.40;99.90;;;;;;4997209;28;20270;-76
2021/12/16 07:18:18;;;;;;;33.53;17.80;;;8.40;99.90;;;;;;5030766;28;20203;-76
2021/12/16 07:20:44;;;;;;;41.20;18.70;;;8.40;99.90;;;;;;5006376;28;20193;-76
2021/12/16 07:23:10;;;;;;;37.77;18.43;;;8.40;99.90;;;;;;5004700;28;20183;-76
2021/12/16 07:25:49;;;;;;;33.23;17.17;;;8.40;99.90;;;;;;5006957;28;20237;-76
2021/12/16 07:28:15;;;;;;;31.93;17.60;;;8.50;99.90;;;;;;5021654;28;20205;-76
2021/12/16 07:30:44;;;;;;;33.67;17.27;;;8.50;99.90;;;;;;5009627;28;20545;-76
2021/12/16 07:33:12;;;;;;;31.40;16.57;;;8.40;99.90;;;;;;5030559;28;20174;-76
2021/12/16 07:35:40;;;;;;;28.83;16.70;;;8.50;99.90;;;;;;5004183;28;20179;-77
2021/12/16 07:38:06;;;;;;;29.03;16.13;;;8.50;99.90;;;;;;5017600;28;20174;-77
2021/12/16 07:40:35;;;;;;;33.10;17.83;;;8.50;99.90;;;;;;5002745;28;20214;-76
2021/12/16 07:46:25;;;;;;;30.90;16.60;;;8.50;99.90;;;;;;5025673;28;20281;-77
2021/12/16 07:48:51;;;;;;;30.70;16.70;;;8.40;99.90;;;;;;5011130;28;20198;-74
2021/12/16 07:51:17;;;;;;;37.60;17.23;;;8.40;99.90;;;;;;4996991;28;20257;-76
2021/12/16 07:53:44;;;;;;;34.83;16.57;;;8.40;99.90;;;;;;5016200;28;20676;-77
2021/12/16 07:56:26;;;;;;;33.77;15.53;;;8.50;99.90;;;;;;4998900;28;20187;-76
2021/12/16 07:58:52;;;;;;;31.37;15.67;;;8.50;99.90;;;;;;4997127;28;20210;-76
2021/12/16 08:01:18;;;;;;;35.10;16.67;;;8.50;99.90;;;;;;5005788;28;20178;-76
2021/12/16 08:03:44;;;;;;;28.33;16.97;;;8.50;99.90;;;;;;5007832;28;20540;-76
2021/12/16 08:06:18;;;;;;;31.23;15.67;;;8.50;99.90;;;;;;4996819;28;20179;-76
2021/12/16 08:08:44;;;;;;;25.30;12.93;;;8.50;99.90;;;;;;5005849;28;20211;-76
2021/12/16 08:11:19;;;;;;;23.67;12.13;;;8.50;99.90;;;;;;5010722;28;20174;-76
2021/12/16 08:13:45;;;;;;;31.53;12.67;;;8.50;99.90;;;;;;5000499;28;20681;-77
2021/12/16 08:16:14;;;;;;;21.10;12.07;;;8.50;99.90;;;;;;5001978;28;20206;-77
2021/12/16 08:18:39;;;;;;;21.63;11.67;;;8.50;99.90;;;;;;5011709;28;20210;-78
2021/12/16 08:21:06;;;;;;;21.60;12.00;;;8.50;99.90;;;;;;5000402;28;20188;-76
2021/12/16 08:23:36;;;;;;;22.97;11.13;;;8.50;99.90;;;;;;5015395;28;20184;-77
2021/12/16 08:26:02;;;;;;;21.10;11.73;;;8.50;99.90;;;;;;5013136;28;20172;-75
2021/12/16 08:28:28;;;;;;;21.00;11.63;;;8.50;99.90;;;;;;5008516;28;20197;-76
2021/12/16 08:30:55;;;;;;;23.93;11.37;;;8.50;99.90;;;;;;4985871;28;20278;-76
2021/12/16 08:33:21;;;;;;;21.33;11.43;;;8.50;99.90;;;;;;5015684;28;20274;-76
2021/12/16 08:35:51;;;;;;;24.87;11.23;;;8.50;99.90;;;;;;5008418;28;20221;-76
2021/12/16 08:38:23;;;;;;;24.57;10.90;;;8.50;99.90;;;;;;5014019;28;20227;-77
2021/12/16 08:40:51;;;;;;;19.60;10.97;;;8.50;99.90;;;;;;5004186;28;20206;-75
2021/12/16 08:43:19;;;;;;;19.20;11.03;;;8.50;99.90;;;;;;5020535;28;20174;-75
2021/12/16 08:45:49;;;;;;;21.27;11.33;;;8.50;99.90;;;;;;5001768;28;20210;-75
2021/12/16 08:48:14;;;;;;;23.27;11.47;;;8.60;99.90;;;;;;5001860;28;20208;-76
2021/12/16 08:50:53;;;;;;;21.47;12.00;;;8.60;99.90;;;;;;4995723;28;20170;-77
2021/12/16 08:53:21;;;;;;;18.97;11.57;;;8.60;99.90;;;;;;5015317;28;20182;-77
2021/12/16 08:55:49;;;;;;;17.93;10.80;;;8.70;99.90;;;;;;5009845;28;20258;-77
2021/12/16 08:58:15;;;;;;;21.67;10.40;;;8.70;99.90;;;;;;5000060;28;20547;-77
2021/12/16 09:00:52;;;;;;;20.90;9.90;;;8.70;99.90;;;;;;5010845;28;20180;-77
2021/12/16 09:03:18;;;;;;;17.70;9.93;;;8.70;99.90;;;;;;5004981;28;20179;-77
2021/12/16 09:05:49;;;;;;;18.50;9.13;;;8.70;99.90;;;;;;5013968;28;20560;-76
2021/12/16 09:08:15;;;;;;;14.77;8.53;;;8.80;99.90;;;;;;5010549;28;20198;-76
2021/12/16 09:10:40;;;;;;;17.03;8.97;;;8.80;99.90;;;;;;5002716;28;20186;-76
2021/12/16 09:13:12;;;;;;;16.67;9.00;;;8.80;99.90;;;;;;5007480;28;20174;-76
2021/12/16 09:15:57;;;;;;;13.10;7.73;;;8.80;99.90;;;;;;4995421;28;20167;-75
2021/12/16 09:18:27;;;;;;;14.50;8.63;;;8.90;99.90;;;;;;4993676;28;20208;-76
2021/12/16 09:20:55;;;;;;;16.97;8.47;;;8.90;99.90;;;;;;5006390;28;20180;-76
2021/12/16 09:23:20;;;;;;;12.60;8.20;;;8.90;99.90;;;;;;4995549;28;20188;-75
2021/12/16 09:25:48;;;;;;;14.27;7.93;;;8.90;99.90;;;;;;5009142;28;20183;-75
2021/12/16 09:28:18;;;;;;;14.00;7.30;;;8.90;99.90;;;;;;5006182;28;20174;-76
2021/12/16 09:30:44;;;;;;;13.80;5.90;;;8.80;99.90;;;;;;5010517;28;20198;-76
2021/12/16 09:33:15;;;;;;;11.43;6.80;;;8.80;99.90;;;;;;5001205;28;20269;-76
2021/12/16 09:35:43;;;;;;;12.93;8.00;;;8.90;99.90;;;;;;4992944;28;20194;-77
2021/12/16 09:38:22;;;;;;;16.60;8.60;;;8.90;99.90;;;;;;4991414;28;20194;-76
2021/12/16 09:40:54;;;;;;;15.73;8.33;;;8.90;99.90;;;;;;5010774;28;20546;-76
2021/12/16 09:43:23;;;;;;;15.80;8.60;;;8.90;99.90;;;;;;4995219;28;20623;-76
2021/12/16 09:45:50;;;;;;;12.97;7.73;;;9.00;99.90;;;;;;5014209;28;20266;-75
2021/12/16 09:48:17;;;;;;;11.83;7.67;;;9.00;99.90;;;;;;5009843;28;20194;-76
2021/12/16 09:50:42;;;;;;;15.37;8.43;;;9.10;99.90;;;;;;4995658;28;20178;-76
2021/12/16 09:53:15;;;;;;;13.10;7.07;;;9.10;99.90;;;;;;4995507;28;20181;-77
2021/12/16 09:55:43;;;;;;;13.80;7.63;;;9.10;99.90;;;;;;5011432;28;20179;-76
2021/12/16 09:58:09;;;;;;;11.63;6.87;;;9.20;99.90;;;;;;4994528;28;20235;-76
2021/12/16 10:00:36;;;;;;;12.63;7.00;;;9.20;99.90;;;;;;5004471;28;20635;-78
2021/12/16 10:03:37;;;;;;;13.00;6.80;;;9.20;99.90;;;;;;5002267;28;20210;-76
2021/12/16 10:06:28;;;;;;;12.40;7.10;;;9.30;99.90;;;;;;5028820;28;20197;-76
2021/12/16 10:09:00;;;;;;;11.90;6.37;;;9.30;99.90;;;;;;5011190;28;20194;-75
2021/12/16 10:11:26;;;;;;;12.43;6.70;;;9.30;99.90;;;;;;5008789;28;20273;-75
2021/12/16 10:19:36;;;;;;;10.83;5.97;;;9.20;99.90;;;;;;5013681;28;20200;-79
2021/12/16 10:22:24;;;;;;;13.63;5.53;;;9.20;99.90;;;;;;5001781;28;20257;-78
2021/12/16 10:24:55;;;;;;;11.80;5.50;;;9.30;99.90;;;;;;5045763;28;20265;-79
2021/12/16 10:27:25;;;;;;;10.80;5.10;;;9.30;99.90;;;;;;5007816;28;20551;-79
2021/12/16 10:29:54;;;;;;;10.57;4.73;;;9.20;99.90;;;;;;5031350;28;20206;-79
2021/12/16 10:32:49;;;;;;;10.97;5.10;;;9.20;99.90;;;;;;5034829;28;20184;-78
2021/12/16 10:35:31;;;;;;;11.53;5.27;;;9.20;99.90;;;;;;5026934;28;20193;-77
2021/12/16 10:38:08;;;;;;;10.13;4.47;;;9.30;99.90;;;;;;4999804;28;20180;-78
2021/12/16 10:40:43;;;;;;;12.43;5.13;;;9.30;99.90;;;;;;5000779;28;20182;-77
2021/12/16 10:43:22;;;;;;;12.40;5.37;;;9.30;99.90;;;;;;5022718;28;20174;-78
2021/12/16 10:46:05;;;;;;;10.33;5.47;;;9.30;99.90;;;;;;5042395;28;20206;-76
2021/12/16 10:48:54;;;;;;;15.90;6.23;;;9.30;99.90;;;;;;5059811;28;20191;-77
2021/12/16 10:51:21;;;;;;;13.83;6.33;;;9.20;99.90;;;;;;5025076;28;20182;-79
2021/12/16 10:54:10;;;;;;;15.20;7.07;;;9.30;99.90;;;;;;5027090;28;20277;-76
2021/12/16 10:56:53;;;;;;;15.77;6.93;;;9.30;99.90;;;;;;5026074;28;20189;-80
2021/12/16 10:59:40;;;;;;;18.40;8.17;;;9.30;99.90;;;;;;5026887;28;20204;-80
2021/12/16 11:02:09;;;;;;;12.37;7.67;;;9.40;99.90;;;;;;5011940;28;20179;-78
2021/12/16 11:05:00;;;;;;;12.43;7.77;;;9.50;99.90;;;;;;5038047;28;20218;-79
2021/12/16 11:07:34;;;;;;;14.87;8.57;;;9.40;99.90;;;;;;5045367;28;20266;-78
2021/12/16 11:10:06;;;;;;;15.83;9.13;;;9.30;99.90;;;;;;5044028;28;20208;-77
2021/12/16 11:12:48;;;;;;;15.27;7.93;;;9.30;99.90;;;;;;5033183;28;20182;-76
2021/12/16 11:15:24;;;;;;;13.40;6.50;;;9.30;99.90;;;;;;5025981;28;20194;-77
2021/12/16 11:17:59;;;;;;;15.43;6.27;;;9.40;99.90;;;;;;5017770;28;20180;-77
2021/12/16 11:20:46;;;;;;;12.43;5.77;;;9.40;99.90;;;;;;5027219;28;20186;-78
2021/12/16 11:23:34;;;;;;;13.57;5.80;;;9.40;99.90;;;;;;5022102;28;20518;-77
2021/12/16 11:26:13;;;;;;;12.37;4.53;;;9.40;99.90;;;;;;5021279;28;20183;-78
2021/12/16 11:28:43;;;;;;;13.93;5.17;;;9.40;99.90;;;;;;5019390;28;20185;-78
2021/12/16 11:31:13;;;;;;;15.37;5.10;;;9.40;99.90;;;;;;5046982;28;20223;-78
2021/12/16 11:33:48;;;;;;;10.07;4.70;;;9.40;99.90;;;;;;5029894;28;20479;-77
2021/12/16 11:36:25;;;;;;;13.93;3.80;;;9.40;99.90;;;;;;5017021;28;20165;-77
2021/12/16 11:39:03;;;;;;;10.50;3.87;;;9.30;99.90;;;;;;5041928;28;20290;-77
2021/12/16 11:41:44;;;;;;;9.90;3.47;;;9.30;99.90;;;;;;5024158;28;20185;-77
2021/12/16 11:44:17;;;;;;;12.77;3.80;;;9.30;99.90;;;;;;5026434;28;20214;-77
2021/12/16 11:46:47;;;;;;;13.03;3.73;;;9.30;99.90;;;;;;5034505;28;20190;-76
2021/12/16 11:49:34;;;;;;;11.37;3.07;;;9.40;99.90;;;;;;5019372;28;20686;-76
2021/12/16 11:52:19;;;;;;;8.47;3.40;;;9.40;99.90;;;;;;5002201;28;20205;-77
2021/12/16 11:55:18;;;;;;;11.40;3.83;;;9.40;99.90;;;;;;5002939;28;20175;-77
2021/12/16 11:57:50;;;;;;;11.00;3.40;;;9.50;99.90;;;;;;5009645;28;20187;-78
2021/12/16 12:00:26;;;;;;;16.07;3.63;;;9.60;99.90;;;;;;5011262;28;20218;-76
2021/12/16 12:02:55;;;;;;;9.47;2.90;;;9.50;99.90;;;;;;5030678;28;20287;-77
2021/12/16 12:05:32;;;;;;;9.13;3.17;;;9.40;99.90;;;;;;4996731;28;21731;-77
2021/12/16 12:08:06;;;;;;;14.93;3.50;;;9.40;99.90;;;;;;5026362;28;20171;-77
2021/12/16 12:11:06;;;;;;;14.00;3.40;;;9.40;99.90;;;;;;5033825;28;20172;-77
2021/12/16 12:13:42;;;;;;;12.23;3.20;;;9.40;99.90;;;;;;5002786;28;20199;-77
2021/12/16 12:16:22;;;;;;;11.07;3.83;;;9.40;99.90;;;;;;5001222;28;20647;-77
2021/12/16 12:18:53;;;;;;;10.73;3.20;;;9.40;99.90;;;;;;5008748;28;20213;-77
2021/12/16 12:21:27;;;;;;;15.97;3.87;;;9.40;99.90;;;;;;5010322;28;20176;-77
2021/12/16 12:24:01;;;;;;;12.47;3.67;;;9.40;99.90;;;;;;5002030;28;20284;-77
2021/12/16 12:26:55;;;;;;;11.80;3.47;;;9.30;99.90;;;;;;5011714;28;20622;-77
2021/12/16 12:29:25;;;;;;;9.67;2.87;;;9.20;99.90;;;;;;5002688;28;20214;-77
2021/12/16 12:31:56;;;;;;;11.23;2.90;;;9.30;99.90;;;;;;5018320;28;20299;-77
2021/12/16 12:34:22;;;;;;;10.53;2.90;;;9.30;99.90;;;;;;5010492;28;20182;-77
2021/12/16 12:36:50;;;;;;;11.07;3.27;;;9.30;99.90;;;;;;5011463;28;20638;-77
2021/12/16 12:43:05;;;;;;;12.20;3.20;;;9.40;99.90;;;;;;5013163;28;20539;-77
2021/12/16 12:45:35;;;;;;;12.10;3.13;;;9.40;99.90;;;;;;4995294;28;20212;-76
2021/12/16 12:48:03;;;;;;;14.63;3.70;;;9.40;99.90;;;;;;5006588;28;20200;-76
2021/12/16 12:50:33;;;;;;;16.40;3.90;;;9.40;99.90;;;;;;5008071;28;20171;-77
2021/12/16 12:53:14;;;;;;;15.33;3.83;;;9.40;99.90;;;;;;5028297;28;20267;-77
2021/12/16 12:55:40;;;;;;;14.10;4.47;;;9.50;99.90;;;;;;4998954;28;20187;-77
2021/12/16 12:58:15;;;;;;;16.43;4.53;;;9.50;99.90;;;;;;4995345;28;20183;-77
2021/12/16 13:01:04;;;;;;;12.13;4.60;;;9.50;99.90;;;;;;5028141;28;20178;-77
2021/12/16 13:03:36;;;;;;;10.27;3.30;;;9.40;99.90;;;;;;4995781;28;20183;-77
2021/12/16 13:06:10;;;;;;;11.10;3.50;;;9.40;99.90;;;;;;5007476;28;20267;-77
2021/12/16 13:08:49;;;;;;;10.93;3.33;;;9.30;99.90;;;;;;5008065;28;20194;-78
2021/12/16 13:11:17;;;;;;;15.33;4.70;;;9.40;99.90;;;;;;4999323;28;20190;-78
2021/12/16 13:14:02;;;;;;;16.27;3.87;;;9.40;99.90;;;;;;5006598;28;20180;-77
2021/12/16 13:17:18;;;;;;;13.73;3.37;;;9.50;99.90;;;;;;4999421;28;20190;-78
2021/12/16 13:31:03;;;;;;;13.53;3.23;;;9.40;99.90;;;;;;5019202;28;20183;-76
2021/12/16 13:33:40;;;;;;;16.47;4.43;;;9.30;99.90;;;;;;5006825;28;20178;-79
2021/12/16 13:36:15;;;;;;;14.30;3.60;;;9.30;99.90;;;;;;4994900;28;20184;-77
2021/12/16 13:38:48;;;;;;;11.90;3.37;;;9.20;99.90;;;;;;5038099;28;20195;-78
2021/12/16 13:41:25;;;;;;;13.50;3.57;;;9.10;99.90;;;;;;5028476;28;20569;-77
2021/12/16 13:44:11;;;;;;;16.30;4.13;;;9.20;99.90;;;;;;5012722;28;20207;-78
2021/12/16 13:47:10;;;;;;;12.53;3.10;;;9.20;99.90;;;;;;5011686;28;20178;-78
2021/12/16 13:58:27;;;;;;;17.73;3.77;;;8.90;99.90;;;;;;5018224;28;20680;-77
2021/12/16 14:06:39;;;;;;;15.93;3.23;;;8.90;99.90;;;;;;5013263;28;20290;-77
2021/12/16 14:09:17;;;;;;;11.37;3.67;;;8.80;99.90;;;;;;5007552;28;20236;-77
2021/12/16 14:14:52;;;;;;;12.57;3.60;;;8.80;99.90;;;;;;5014919;28;20590;-77
2021/12/16 14:18:02;;;;;;;13.63;3.03;;;8.80;99.90;;;;;;4999378;28;20171;-77
2021/12/16 14:24:09;;;;;;;12.60;2.70;;;8.60;99.90;;;;;;5019730;28;20184;-76
2021/12/16 14:26:53;;;;;;;14.73;3.37;;;8.50;99.90;;;;;;5018683;28;20186;-77
2021/12/16 14:33:05;;;;;;;22.00;5.20;;;8.30;99.90;;;;;;5026047;28;20268;-77
2021/12/16 14:35:01;;;;;;;18.30;5.60;;;8.30;99.90;;;;;;5012972;28;20175;-76
2021/12/16 14:37:47;;;;;;;16.77;4.83;;;8.30;99.90;;;;;;5006175;28;20276;-77
2021/12/16 14:40:39;;;;;;;16.93;5.73;;;8.20;99.90;;;;;;5030335;28;20198;-77
2021/12/16 14:43:15;;;;;;;14.27;4.40;;;8.20;99.90;;;;;;5023882;28;20185;-77
2021/12/16 14:45:47;;;;;;;15.93;4.20;;;8.20;99.90;;;;;;5046932;28;20277;-78
2021/12/16 14:51:02;;;;;;;10.70;3.13;;;8.20;99.90;;;;;;5028372;28;20262;-77
2021/12/16 14:53:45;;;;;;;13.13;3.20;;;8.20;99.90;;;;;;5031855;28;20185;-78
2021/12/16 14:56:45;;;;;;;12.90;3.33;;;8.10;99.90;;;;;;5013215;28;20684;-78
2021/12/16 14:59:14;;;;;;;12.37;4.07;;;8.10;99.90;;;;;;5014681;28;20210;-76
2021/12/16 15:01:48;;;;;;;12.03;3.43;;;8.10;99.90;;;;;;5012356;28;20303;-76
2021/12/16 15:04:18;;;;;;;15.50;3.57;;;8.00;99.90;;;;;;4997674;28;20298;-77
2021/12/16 15:06:58;;;;;;;10.03;3.53;;;8.00;99.90;;;;;;5012245;28;20175;-77
2021/12/16 15:09:31;;;;;;;13.80;3.93;;;8.10;99.90;;;;;;5013296;28;20305;-77
2021/12/16 15:12:25;;;;;;;10.53;4.30;;;8.00;99.90;;;;;;5003332;28;20394;-77
2021/12/16 15:15:24;;;;;;;12.87;3.70;;;8.00;99.90;;;;;;4994967;28;20171;-77
2021/12/16 15:43:02;;;;;;;11.87;3.53;;;7.90;99.90;;;;;;5022427;28;20190;-77
2021/12/16 15:45:41;;;;;;;12.07;3.77;;;7.90;99.90;;;;;;5008956;28;20194;-78
2021/12/16 15:48:13;;;;;;;9.47;3.43;;;7.90;99.90;;;;;;5025236;28;20185;-77
2021/12/16 15:50:45;;;;;;;14.60;4.83;;;7.90;99.90;;;;;;5013706;28;20197;-78
2021/12/16 15:53:15;;;;;;;11.07;3.80;;;7.80;99.90;;;;;;5014019;28;20189;-77
2021/12/16 15:55:45;;;;;;;11.00;4.00;;;7.90;99.90;;;;;;5012739;28;20189;-76
2021/12/16 15:58:19;;;;;;;12.00;4.87;;;7.80;99.90;;;;;;5010394;28;20566;-76
2021/12/16 16:00:48;;;;;;;16.93;5.23;;;7.80;99.90;;;;;;5005938;28;20178;-77
2021/12/16 16:03:28;;;;;;;14.07;4.97;;;7.80;99.90;;;;;;4996681;28;20183;-77
2021/12/16 16:05:57;;;;;;;10.50;4.57;;;7.80;99.90;;;;;;5029192;28;20242;-77
2021/12/16 16:08:26;;;;;;;10.27;4.50;;;7.80;99.90;;;;;;5011843;28;20198;-77
2021/12/16 16:11:00;;;;;;;11.70;5.17;;;7.70;99.90;;;;;;5021730;28;20266;-77
2021/12/16 16:13:30;;;;;;;13.00;4.53;;;7.80;99.90;;;;;;5010559;28;20260;-77
2021/12/16 16:16:03;;;;;;;13.60;5.50;;;7.80;99.90;;;;;;5006047;28;20269;-76
2021/12/16 16:21:19;;;;;;;18.30;5.97;;;7.80;99.90;;;;;;5015068;28;20531;-76
2021/12/16 16:23:52;;;;;;;14.57;6.33;;;7.70;99.90;;;;;;5009648;28;20190;-76
2021/12/16 16:26:19;;;;;;;15.90;6.73;;;7.70;99.90;;;;;;5019755;28;20252;-77
2021/12/16 16:28:46;;;;;;;15.63;5.50;;;7.70;99.90;;;;;;5006210;28;20218;-77
2021/12/16 16:31:18;;;;;;;12.40;5.17;;;7.70;99.90;;;;;;5009586;28;20190;-78
2021/12/16 16:34:00;;;;;;;14.33;5.60;;;7.70;99.90;;;;;;4997615;28;20197;-76
2021/12/16 16:37:00;;;;;;;8.77;4.40;;;7.70;99.90;;;;;;5031701;28;20179;-77
2021/12/16 16:39:30;;;;;;;11.30;5.10;;;7.60;99.90;;;;;;5003376;28;20264;-74
2021/12/16 16:42:01;;;;;;;15.67;5.97;;;7.50;99.90;;;;;;5009546;28;20233;-76
2021/12/16 16:44:39;;;;;;;15.60;6.07;;;7.50;99.90;;;;;;5011562;28;20202;-76
2021/12/16 16:47:27;;;;;;;14.73;5.77;;;7.50;99.90;;;;;;5001032;28;20174;-76
2021/12/16 16:50:08;;;;;;;17.43;6.53;;;7.50;99.90;;;;;;5005526;28;20198;-77
2021/12/16 16:52:40;;;;;;;12.93;6.53;;;7.50;99.90;;;;;;5020383;28;20880;-76
2021/12/16 16:55:16;;;;;;;17.97;6.73;;;7.50;99.90;;;;;;5008537;28;20217;-76
2021/12/16 16:57:58;;;;;;;17.60;7.00;;;7.50;99.90;;;;;;5004492;28;20176;-75
2021/12/16 17:00:54;;;;;;;18.87;7.27;;;7.50;99.90;;;;;;4995314;28;20186;-76
2021/12/16 17:03:22;;;;;;;15.73;7.00;;;7.50;99.90;;;;;;5024548;28;20193;-76
2021/12/16 17:05:54;;;;;;;12.17;5.97;;;7.50;99.90;;;;;;5006998;28;20216;-77